sensor_id;sensor_type;location;lat;lon;timestamp;P1;durP1;ratioP1;P2;durP2;ratioP2
41627;SDS011;27321;50.816;6.054;2022-12-18T00:04:24;33.17;;;18.87;;
41627;SDS011;27321;50.816;6.054;2022-12-18T00:07:27;37.10;;;20.10;;
41627;SDS011;27321;50.816;6.054;2022-12-18T00:10:28;34.42;;;19.23;;
41627;SDS011;27321;50.816;6.054;2022-12-18T00:13:29;25.33;;;13.57;;
41627;SDS011;27321;50.816;6.054;2022-12-18T00:16:30;34.77;;;18.77;;
41627;SDS011;27321;50.816;6.054;2022-12-18T00:19:33;32.67;;;18.10;;
41627;SDS011;27321;50.816;6.054;2022-12-18T00:22:33;32.83;;;17.43;;
41627;SDS011;27321;50.816;6.054;2022-12-18T00:25:35;30.00;;;16.63;;
41627;SDS011;27321;50.816;6.054;2022-12-18T00:28:37;34.77;;;17.40;;
41627;SDS011;27321;50.816;6.054;2022-12-18T00:31:38;25.40;;;14.32;;
41627;SDS011;27321;50.816;6.054;2022-12-18T00:34:39;32.28;;;17.30;;
41627;SDS011;27321;50.816;6.054;2022-12-18T00:37:40;32.07;;;17.37;;
41627;SDS011;27321;50.816;6.054;2022-12-18T00:40:41;23.47;;;13.30;;
41627;SDS011;27321;50.816;6.054;2022-12-18T00:43:42;31.07;;;16.63;;
41627;SDS011;27321;50.816;6.054;2022-12-18T00:46:43;29.73;;;16.37;;
41627;SDS011;27321;50.816;6.054;2022-12-18T00:49:45;30.00;;;16.40;;
41627;SDS011;27321;50.816;6.054;2022-12-18T00:52:46;30.27;;;16.00;;
41627;SDS011;27321;50.816;6.054;2022-12-18T00:55:47;29.20;;;15.82;;
41627;SDS011;27321;50.816;6.054;2022-12-18T00:58:48;29.45;;;16.52;;
41627;SDS011;27321;50.816;6.054;2022-12-18T01:01:49;24.42;;;13.25;;
41627;SDS011;27321;50.816;6.054;2022-12-18T01:04:50;28.25;;;15.63;;
41627;SDS011;27321;50.816;6.054;2022-12-18T01:07:54;29.13;;;14.97;;
41627;SDS011;27321;50.816;6.054;2022-12-18T01:10:56;27.17;;;15.67;;
41627;SDS011;27321;50.816;6.054;2022-12-18T01:14:02;27.90;;;15.90;;
41627;SDS011;27321;50.816;6.054;2022-12-18T01:17:03;32.07;;;16.93;;
41627;SDS011;27321;50.816;6.054;2022-12-18T01:20:07;32.03;;;16.33;;
41627;SDS011;27321;50.816;6.054;2022-12-18T01:23:09;29.70;;;15.37;;
41627;SDS011;27321;50.816;6.054;2022-12-18T01:26:12;19.00;;;10.80;;
41627;SDS011;27321;50.816;6.054;2022-12-18T01:29:15;24.97;;;14.13;;
41627;SDS011;27321;50.816;6.054;2022-12-18T01:32:16;25.70;;;13.85;;
41627;SDS011;27321;50.816;6.054;2022-12-18T01:35:17;26.30;;;13.83;;
41627;SDS011;27321;50.816;6.054;2022-12-18T01:38:18;24.00;;;13.07;;
41627;SDS011;27321;50.816;6.054;2022-12-18T01:41:22;21.50;;;12.60;;
41627;SDS011;27321;50.816;6.054;2022-12-18T01:47:59;21.48;;;12.02;;
41627;SDS011;27321;50.816;6.054;2022-12-18T01:51:07;22.00;;;12.17;;
41627;SDS011;27321;50.816;6.054;2022-12-18T01:54:10;22.77;;;12.40;;
41627;SDS011;27321;50.816;6.054;2022-12-18T01:57:11;23.83;;;13.57;;
41627;SDS011;27321;50.816;6.054;2022-12-18T02:00:15;22.40;;;12.70;;
41627;SDS011;27321;50.816;6.054;2022-12-18T02:03:19;20.80;;;11.73;;
41627;SDS011;27321;50.816;6.054;2022-12-18T02:06:30;19.83;;;12.10;;
41627;SDS011;27321;50.816;6.054;2022-12-18T02:19:47;25.53;;;13.13;;
41627;SDS011;27321;50.816;6.054;2022-12-18T02:26:27;21.50;;;12.10;;
41627;SDS011;27321;50.816;6.054;2022-12-18T02:29:40;23.53;;;12.40;;
41627;SDS011;27321;50.816;6.054;2022-12-18T02:32:52;21.23;;;12.13;;
41627;SDS011;27321;50.816;6.054;2022-12-18T02:35:54;19.43;;;12.10;;
41627;SDS011;27321;50.816;6.054;2022-12-18T02:38:58;21.00;;;12.27;;
41627;SDS011;27321;50.816;6.054;2022-12-18T02:42:02;19.80;;;12.07;;
41627;SDS011;27321;50.816;6.054;2022-12-18T02:45:08;20.53;;;11.90;;
41627;SDS011;27321;50.816;6.054;2022-12-18T02:48:10;20.20;;;11.40;;
41627;SDS011;27321;50.816;6.054;2022-12-18T02:51:18;21.58;;;12.30;;
41627;SDS011;27321;50.816;6.054;2022-12-18T02:58:08;20.77;;;10.67;;
41627;SDS011;27321;50.816;6.054;2022-12-18T03:01:41;16.17;;;10.37;;
41627;SDS011;27321;50.816;6.054;2022-12-18T03:05:26;18.67;;;11.20;;
41627;SDS011;27321;50.816;6.054;2022-12-18T03:08:38;17.10;;;10.33;;
41627;SDS011;27321;50.816;6.054;2022-12-18T03:11:45;18.87;;;10.77;;
41627;SDS011;27321;50.816;6.054;2022-12-18T03:15:16;17.00;;;9.50;;
41627;SDS011;27321;50.816;6.054;2022-12-18T03:18:43;15.50;;;8.25;;
41627;SDS011;27321;50.816;6.054;2022-12-18T03:21:54;18.37;;;8.43;;
41627;SDS011;27321;50.816;6.054;2022-12-18T03:24:59;13.50;;;7.33;;
41627;SDS011;27321;50.816;6.054;2022-12-18T03:28:15;14.40;;;7.20;;
41627;SDS011;27321;50.816;6.054;2022-12-18T03:31:24;13.03;;;7.63;;
41627;SDS011;27321;50.816;6.054;2022-12-18T03:34:32;14.10;;;8.17;;
41627;SDS011;27321;50.816;6.054;2022-12-18T03:37:40;14.93;;;7.78;;
41627;SDS011;27321;50.816;6.054;2022-12-18T03:44:29;13.73;;;7.60;;
41627;SDS011;27321;50.816;6.054;2022-12-18T03:47:59;15.13;;;8.10;;
41627;SDS011;27321;50.816;6.054;2022-12-18T03:51:33;12.00;;;6.97;;
41627;SDS011;27321;50.816;6.054;2022-12-18T03:54:48;11.57;;;6.57;;
41627;SDS011;27321;50.816;6.054;2022-12-18T03:57:51;11.50;;;6.70;;
41627;SDS011;27321;50.816;6.054;2022-12-18T04:00:54;11.80;;;6.43;;
41627;SDS011;27321;50.816;6.054;2022-12-18T04:04:00;10.03;;;6.03;;
41627;SDS011;27321;50.816;6.054;2022-12-18T04:07:07;12.00;;;5.90;;
41627;SDS011;27321;50.816;6.054;2022-12-18T04:10:11;10.30;;;5.83;;
41627;SDS011;27321;50.816;6.054;2022-12-18T04:13:21;11.60;;;6.13;;
41627;SDS011;27321;50.816;6.054;2022-12-18T04:16:29;9.30;;;5.87;;
41627;SDS011;27321;50.816;6.054;2022-12-18T04:19:34;9.67;;;5.87;;
41627;SDS011;27321;50.816;6.054;2022-12-18T04:22:37;9.33;;;5.60;;
41627;SDS011;27321;50.816;6.054;2022-12-18T04:25:38;8.68;;;5.07;;
41627;SDS011;27321;50.816;6.054;2022-12-18T04:28:42;9.53;;;5.67;;
41627;SDS011;27321;50.816;6.054;2022-12-18T04:31:43;11.65;;;5.57;;
41627;SDS011;27321;50.816;6.054;2022-12-18T04:34:45;10.35;;;5.53;;
41627;SDS011;27321;50.816;6.054;2022-12-18T04:37:46;9.45;;;5.20;;
41627;SDS011;27321;50.816;6.054;2022-12-18T04:40:47;12.38;;;5.68;;
41627;SDS011;27321;50.816;6.054;2022-12-18T04:43:55;10.30;;;5.80;;
41627;SDS011;27321;50.816;6.054;2022-12-18T04:46:56;10.83;;;5.67;;
41627;SDS011;27321;50.816;6.054;2022-12-18T04:49:57;9.00;;;5.80;;
41627;SDS011;27321;50.816;6.054;2022-12-18T04:52:58;10.05;;;5.32;;
41627;SDS011;27321;50.816;6.054;2022-12-18T04:56:10;8.00;;;4.33;;
41627;SDS011;27321;50.816;6.054;2022-12-18T04:59:13;9.50;;;5.60;;
41627;SDS011;27321;50.816;6.054;2022-12-18T05:02:14;10.83;;;6.17;;
41627;SDS011;27321;50.816;6.054;2022-12-18T05:05:15;11.30;;;5.27;;
41627;SDS011;27321;50.816;6.054;2022-12-18T05:08:17;11.20;;;5.65;;
41627;SDS011;27321;50.816;6.054;2022-12-18T05:11:18;9.48;;;5.10;;
41627;SDS011;27321;50.816;6.054;2022-12-18T05:14:19;10.30;;;5.88;;
41627;SDS011;27321;50.816;6.054;2022-12-18T05:17:20;10.10;;;5.50;;
41627;SDS011;27321;50.816;6.054;2022-12-18T05:20:21;9.80;;;5.47;;
41627;SDS011;27321;50.816;6.054;2022-12-18T05:23:24;12.17;;;5.63;;
41627;SDS011;27321;50.816;6.054;2022-12-18T05:26:26;9.90;;;5.40;;
41627;SDS011;27321;50.816;6.054;2022-12-18T05:29:27;10.70;;;5.70;;
41627;SDS011;27321;50.816;6.054;2022-12-18T05:32:28;9.98;;;5.25;;
41627;SDS011;27321;50.816;6.054;2022-12-18T05:35:29;7.97;;;4.70;;
41627;SDS011;27321;50.816;6.054;2022-12-18T05:38:31;8.80;;;5.00;;
41627;SDS011;27321;50.816;6.054;2022-12-18T05:41:33;8.77;;;5.07;;
41627;SDS011;27321;50.816;6.054;2022-12-18T05:44:34;8.97;;;4.90;;
41627;SDS011;27321;50.816;6.054;2022-12-18T05:47:35;7.03;;;3.80;;
41627;SDS011;27321;50.816;6.054;2022-12-18T05:50:37;8.77;;;4.47;;
41627;SDS011;27321;50.816;6.054;2022-12-18T05:53:40;9.03;;;4.60;;
41627;SDS011;27321;50.816;6.054;2022-12-18T05:56:41;7.93;;;4.57;;
41627;SDS011;27321;50.816;6.054;2022-12-18T05:59:42;7.20;;;4.40;;
41627;SDS011;27321;50.816;6.054;2022-12-18T06:02:46;8.23;;;4.30;;
41627;SDS011;27321;50.816;6.054;2022-12-18T06:05:47;8.60;;;4.20;;
41627;SDS011;27321;50.816;6.054;2022-12-18T06:08:49;8.45;;;4.68;;
41627;SDS011;27321;50.816;6.054;2022-12-18T06:11:51;8.02;;;4.07;;
41627;SDS011;27321;50.816;6.054;2022-12-18T06:14:55;8.80;;;4.67;;
41627;SDS011;27321;50.816;6.054;2022-12-18T06:18:06;10.30;;;5.50;;
41627;SDS011;27321;50.816;6.054;2022-12-18T06:21:07;12.77;;;6.07;;
41627;SDS011;27321;50.816;6.054;2022-12-18T06:24:09;10.73;;;5.40;;
41627;SDS011;27321;50.816;6.054;2022-12-18T06:27:10;9.50;;;5.78;;
41627;SDS011;27321;50.816;6.054;2022-12-18T06:30:11;11.07;;;5.78;;
41627;SDS011;27321;50.816;6.054;2022-12-18T06:33:13;10.75;;;6.10;;
41627;SDS011;27321;50.816;6.054;2022-12-18T06:36:15;10.30;;;5.93;;
41627;SDS011;27321;50.816;6.054;2022-12-18T06:39:16;7.88;;;5.13;;
41627;SDS011;27321;50.816;6.054;2022-12-18T06:42:17;10.60;;;5.60;;
41627;SDS011;27321;50.816;6.054;2022-12-18T06:45:22;10.00;;;5.10;;
41627;SDS011;27321;50.816;6.054;2022-12-18T06:48:23;9.48;;;5.55;;
41627;SDS011;27321;50.816;6.054;2022-12-18T06:51:24;7.95;;;5.25;;
41627;SDS011;27321;50.816;6.054;2022-12-18T06:54:25;10.63;;;5.57;;
41627;SDS011;27321;50.816;6.054;2022-12-18T06:57:26;9.23;;;5.70;;
41627;SDS011;27321;50.816;6.054;2022-12-18T07:00:27;9.60;;;5.30;;
41627;SDS011;27321;50.816;6.054;2022-12-18T07:03:29;6.18;;;3.65;;
41627;SDS011;27321;50.816;6.054;2022-12-18T07:06:35;10.73;;;5.88;;
41627;SDS011;27321;50.816;6.054;2022-12-18T07:09:36;9.37;;;5.33;;
41627;SDS011;27321;50.816;6.054;2022-12-18T07:12:37;12.75;;;5.60;;
41627;SDS011;27321;50.816;6.054;2022-12-18T07:15:38;8.63;;;5.43;;
41627;SDS011;27321;50.816;6.054;2022-12-18T07:18:39;9.23;;;4.20;;
41627;SDS011;27321;50.816;6.054;2022-12-18T07:21:40;11.23;;;5.82;;
41627;SDS011;27321;50.816;6.054;2022-12-18T07:24:41;8.95;;;5.18;;
41627;SDS011;27321;50.816;6.054;2022-12-18T07:27:42;12.70;;;5.87;;
41627;SDS011;27321;50.816;6.054;2022-12-18T07:30:43;9.50;;;5.83;;
41627;SDS011;27321;50.816;6.054;2022-12-18T07:33:44;7.17;;;4.13;;
41627;SDS011;27321;50.816;6.054;2022-12-18T07:36:47;10.77;;;6.00;;
41627;SDS011;27321;50.816;6.054;2022-12-18T07:39:48;12.63;;;6.67;;
41627;SDS011;27321;50.816;6.054;2022-12-18T07:42:49;15.47;;;10.73;;
41627;SDS011;27321;50.816;6.054;2022-12-18T07:45:50;22.10;;;16.30;;
41627;SDS011;27321;50.816;6.054;2022-12-18T07:48:50;15.87;;;12.07;;
41627;SDS011;27321;50.816;6.054;2022-12-18T07:51:53;15.93;;;11.38;;
41627;SDS011;27321;50.816;6.054;2022-12-18T07:54:56;13.27;;;9.73;;
41627;SDS011;27321;50.816;6.054;2022-12-18T07:58:00;12.13;;;7.78;;
41627;SDS011;27321;50.816;6.054;2022-12-18T08:01:06;15.83;;;7.60;;
41627;SDS011;27321;50.816;6.054;2022-12-18T08:04:10;12.70;;;7.00;;
41627;SDS011;27321;50.816;6.054;2022-12-18T08:07:11;12.90;;;6.88;;
41627;SDS011;27321;50.816;6.054;2022-12-18T08:10:12;12.03;;;6.53;;
41627;SDS011;27321;50.816;6.054;2022-12-18T08:13:13;10.65;;;6.22;;
41627;SDS011;27321;50.816;6.054;2022-12-18T08:16:14;10.77;;;5.77;;
41627;SDS011;27321;50.816;6.054;2022-12-18T08:19:15;11.02;;;5.88;;
41627;SDS011;27321;50.816;6.054;2022-12-18T08:22:16;12.03;;;6.30;;
41627;SDS011;27321;50.816;6.054;2022-12-18T08:25:17;12.02;;;6.57;;
41627;SDS011;27321;50.816;6.054;2022-12-18T08:28:18;13.25;;;7.72;;
41627;SDS011;27321;50.816;6.054;2022-12-18T08:31:19;10.70;;;7.07;;
41627;SDS011;27321;50.816;6.054;2022-12-18T08:34:21;12.98;;;7.20;;
41627;SDS011;27321;50.816;6.054;2022-12-18T08:37:22;10.50;;;4.93;;
41627;SDS011;27321;50.816;6.054;2022-12-18T08:40:23;13.83;;;7.60;;
41627;SDS011;27321;50.816;6.054;2022-12-18T08:43:24;12.83;;;7.03;;
41627;SDS011;27321;50.816;6.054;2022-12-18T08:46:43;11.23;;;6.37;;
41627;SDS011;27321;50.816;6.054;2022-12-18T08:49:44;13.13;;;6.22;;
41627;SDS011;27321;50.816;6.054;2022-12-18T08:52:45;13.40;;;6.37;;
41627;SDS011;27321;50.816;6.054;2022-12-18T08:55:46;12.53;;;6.13;;
41627;SDS011;27321;50.816;6.054;2022-12-18T08:58:47;10.67;;;6.43;;
41627;SDS011;27321;50.816;6.054;2022-12-18T09:01:53;11.10;;;6.07;;
41627;SDS011;27321;50.816;6.054;2022-12-18T09:04:55;9.70;;;5.83;;
41627;SDS011;27321;50.816;6.054;2022-12-18T09:07:56;11.57;;;5.90;;
41627;SDS011;27321;50.816;6.054;2022-12-18T09:10:57;12.37;;;6.90;;
41627;SDS011;27321;50.816;6.054;2022-12-18T09:13:59;11.47;;;6.60;;
41627;SDS011;27321;50.816;6.054;2022-12-18T09:17:01;11.00;;;6.20;;
41627;SDS011;27321;50.816;6.054;2022-12-18T09:20:02;11.73;;;6.90;;
41627;SDS011;27321;50.816;6.054;2022-12-18T09:23:04;12.35;;;7.07;;
41627;SDS011;27321;50.816;6.054;2022-12-18T09:26:06;12.13;;;7.17;;
41627;SDS011;27321;50.816;6.054;2022-12-18T09:29:07;12.80;;;7.68;;
41627;SDS011;27321;50.816;6.054;2022-12-18T09:32:09;11.60;;;6.95;;
41627;SDS011;27321;50.816;6.054;2022-12-18T09:35:09;11.90;;;7.13;;
41627;SDS011;27321;50.816;6.054;2022-12-18T09:38:11;13.27;;;7.33;;
41627;SDS011;27321;50.816;6.054;2022-12-18T09:44:44;16.43;;;9.03;;
41627;SDS011;27321;50.816;6.054;2022-12-18T09:47:53;17.53;;;10.00;;
41627;SDS011;27321;50.816;6.054;2022-12-18T09:51:02;22.13;;;11.93;;
41627;SDS011;27321;50.816;6.054;2022-12-18T09:54:14;19.03;;;10.93;;
41627;SDS011;27321;50.816;6.054;2022-12-18T09:57:23;19.20;;;10.90;;
41627;SDS011;27321;50.816;6.054;2022-12-18T10:00:25;24.97;;;15.03;;
41627;SDS011;27321;50.816;6.054;2022-12-18T10:03:26;28.40;;;18.53;;
41627;SDS011;27321;50.816;6.054;2022-12-18T10:10:48;19.33;;;12.07;;
41627;SDS011;27321;50.816;6.054;2022-12-18T10:14:09;16.67;;;9.23;;
41627;SDS011;27321;50.816;6.054;2022-12-18T10:20:56;13.17;;;8.10;;
41627;SDS011;27321;50.816;6.054;2022-12-18T10:27:27;13.27;;;8.30;;
41627;SDS011;27321;50.816;6.054;2022-12-18T10:30:29;14.57;;;9.27;;
41627;SDS011;27321;50.816;6.054;2022-12-18T10:33:33;18.73;;;10.03;;
41627;SDS011;27321;50.816;6.054;2022-12-18T10:36:36;18.05;;;9.65;;
41627;SDS011;27321;50.816;6.054;2022-12-18T10:39:39;19.07;;;10.60;;
41627;SDS011;27321;50.816;6.054;2022-12-18T10:42:43;19.53;;;10.73;;
41627;SDS011;27321;50.816;6.054;2022-12-18T10:45:44;17.10;;;10.07;;
41627;SDS011;27321;50.816;6.054;2022-12-18T10:49:07;21.57;;;11.00;;
41627;SDS011;27321;50.816;6.054;2022-12-18T10:52:26;20.13;;;10.43;;
41627;SDS011;27321;50.816;6.054;2022-12-18T10:55:34;17.97;;;10.70;;
41627;SDS011;27321;50.816;6.054;2022-12-18T10:58:38;20.30;;;11.10;;
41627;SDS011;27321;50.816;6.054;2022-12-18T11:01:50;19.50;;;10.65;;
41627;SDS011;27321;50.816;6.054;2022-12-18T11:04:54;22.37;;;12.47;;
41627;SDS011;27321;50.816;6.054;2022-12-18T11:07:55;26.57;;;13.83;;
41627;SDS011;27321;50.816;6.054;2022-12-18T11:10:57;26.17;;;12.97;;
41627;SDS011;27321;50.816;6.054;2022-12-18T11:14:04;21.03;;;11.97;;
41627;SDS011;27321;50.816;6.054;2022-12-18T11:20:32;22.77;;;11.90;;
41627;SDS011;27321;50.816;6.054;2022-12-18T11:23:43;19.87;;;11.23;;
41627;SDS011;27321;50.816;6.054;2022-12-18T11:26:54;22.63;;;12.07;;
41627;SDS011;27321;50.816;6.054;2022-12-18T11:33:37;21.80;;;12.43;;
41627;SDS011;27321;50.816;6.054;2022-12-18T11:36:45;19.63;;;10.87;;
41627;SDS011;27321;50.816;6.054;2022-12-18T11:39:56;24.00;;;12.93;;
41627;SDS011;27321;50.816;6.054;2022-12-18T11:43:21;20.47;;;12.53;;
41627;SDS011;27321;50.816;6.054;2022-12-18T11:47:40;20.97;;;11.30;;
41627;SDS011;27321;50.816;6.054;2022-12-18T11:53:57;20.10;;;11.37;;
41627;SDS011;27321;50.816;6.054;2022-12-18T11:57:03;21.77;;;12.23;;
41627;SDS011;27321;50.816;6.054;2022-12-18T12:00:20;20.77;;;12.07;;
41627;SDS011;27321;50.816;6.054;2022-12-18T12:17:32;25.13;;;12.55;;
41627;SDS011;27321;50.816;6.054;2022-12-18T12:21:05;18.83;;;11.57;;
41627;SDS011;27321;50.816;6.054;2022-12-18T12:38:19;26.13;;;15.05;;
41627;SDS011;27321;50.816;6.054;2022-12-18T12:41:25;26.03;;;16.83;;
41627;SDS011;27321;50.816;6.054;2022-12-18T12:44:55;22.43;;;13.87;;
41627;SDS011;27321;50.816;6.054;2022-12-18T12:47:58;23.13;;;13.60;;
41627;SDS011;27321;50.816;6.054;2022-12-18T12:51:22;24.27;;;13.77;;
41627;SDS011;27321;50.816;6.054;2022-12-18T12:54:33;18.17;;;11.70;;
41627;SDS011;27321;50.816;6.054;2022-12-18T12:57:40;20.27;;;12.53;;
41627;SDS011;27321;50.816;6.054;2022-12-18T13:11:04;20.97;;;11.70;;
41627;SDS011;27321;50.816;6.054;2022-12-18T13:14:49;20.13;;;11.87;;
41627;SDS011;27321;50.816;6.054;2022-12-18T13:21:29;18.70;;;11.53;;
41627;SDS011;27321;50.816;6.054;2022-12-18T13:24:34;20.63;;;12.07;;
41627;SDS011;27321;50.816;6.054;2022-12-18T13:33:49;22.60;;;13.73;;
41627;SDS011;27321;50.816;6.054;2022-12-18T13:36:50;23.13;;;13.50;;
41627;SDS011;27321;50.816;6.054;2022-12-18T13:39:55;23.13;;;12.37;;
41627;SDS011;27321;50.816;6.054;2022-12-18T13:42:56;24.73;;;13.40;;
41627;SDS011;27321;50.816;6.054;2022-12-18T13:46:29;20.53;;;11.90;;
41627;SDS011;27321;50.816;6.054;2022-12-18T13:49:47;19.63;;;12.17;;
41627;SDS011;27321;50.816;6.054;2022-12-18T13:52:48;20.47;;;12.33;;
41627;SDS011;27321;50.816;6.054;2022-12-18T13:55:50;18.53;;;11.40;;
41627;SDS011;27321;50.816;6.054;2022-12-18T14:02:27;19.27;;;11.67;;
41627;SDS011;27321;50.816;6.054;2022-12-18T14:05:30;18.20;;;11.50;;
41627;SDS011;27321;50.816;6.054;2022-12-18T14:08:42;16.93;;;11.07;;
41627;SDS011;27321;50.816;6.054;2022-12-18T14:11:47;17.57;;;10.00;;
41627;SDS011;27321;50.816;6.054;2022-12-18T14:14:50;17.50;;;10.77;;
41627;SDS011;27321;50.816;6.054;2022-12-18T14:22:51;19.37;;;10.23;;
41627;SDS011;27321;50.816;6.054;2022-12-18T14:27:50;20.00;;;11.33;;
41627;SDS011;27321;50.816;6.054;2022-12-18T14:31:15;18.20;;;11.17;;
41627;SDS011;27321;50.816;6.054;2022-12-18T14:34:28;24.88;;;14.38;;
41627;SDS011;27321;50.816;6.054;2022-12-18T14:37:29;23.30;;;13.83;;
41627;SDS011;27321;50.816;6.054;2022-12-18T14:40:31;24.23;;;14.13;;
41627;SDS011;27321;50.816;6.054;2022-12-18T14:43:35;23.40;;;12.60;;
41627;SDS011;27321;50.816;6.054;2022-12-18T14:46:38;26.00;;;14.43;;
41627;SDS011;27321;50.816;6.054;2022-12-18T14:49:47;33.90;;;17.40;;
41627;SDS011;27321;50.816;6.054;2022-12-18T14:52:48;29.03;;;16.07;;
41627;SDS011;27321;50.816;6.054;2022-12-18T14:55:49;27.10;;;16.17;;
41627;SDS011;27321;50.816;6.054;2022-12-18T14:59:13;26.35;;;14.80;;
41627;SDS011;27321;50.816;6.054;2022-12-18T15:02:23;24.17;;;13.80;;
41627;SDS011;27321;50.816;6.054;2022-12-18T15:05:28;24.80;;;13.60;;
41627;SDS011;27321;50.816;6.054;2022-12-18T15:08:35;36.87;;;19.53;;
41627;SDS011;27321;50.816;6.054;2022-12-18T15:14:41;33.40;;;16.67;;
41627;SDS011;27321;50.816;6.054;2022-12-18T15:17:42;38.37;;;18.63;;
41627;SDS011;27321;50.816;6.054;2022-12-18T15:20:50;33.77;;;18.50;;
41627;SDS011;27321;50.816;6.054;2022-12-18T15:23:58;41.50;;;20.25;;
41627;SDS011;27321;50.816;6.054;2022-12-18T15:26:59;38.77;;;19.70;;
41627;SDS011;27321;50.816;6.054;2022-12-18T15:33:24;28.27;;;16.27;;
41627;SDS011;27321;50.816;6.054;2022-12-18T15:36:29;19.40;;;11.55;;
41627;SDS011;27321;50.816;6.054;2022-12-18T15:39:31;32.60;;;17.17;;
41627;SDS011;27321;50.816;6.054;2022-12-18T15:42:31;31.30;;;17.87;;
41627;SDS011;27321;50.816;6.054;2022-12-18T15:45:51;31.17;;;17.57;;
41627;SDS011;27321;50.816;6.054;2022-12-18T15:48:53;29.00;;;16.13;;
41627;SDS011;27321;50.816;6.054;2022-12-18T15:51:59;31.47;;;16.63;;
41627;SDS011;27321;50.816;6.054;2022-12-18T15:55:03;23.33;;;14.00;;
41627;SDS011;27321;50.816;6.054;2022-12-18T15:58:27;24.20;;;14.57;;
41627;SDS011;27321;50.816;6.054;2022-12-18T16:01:29;22.40;;;13.33;;
41627;SDS011;27321;50.816;6.054;2022-12-18T16:04:31;22.60;;;12.53;;
41627;SDS011;27321;50.816;6.054;2022-12-18T16:07:32;19.83;;;11.93;;
41627;SDS011;27321;50.816;6.054;2022-12-18T16:10:33;22.83;;;12.83;;
41627;SDS011;27321;50.816;6.054;2022-12-18T16:13:35;20.40;;;11.98;;
41627;SDS011;27321;50.816;6.054;2022-12-18T16:16:36;22.30;;;13.43;;
41627;SDS011;27321;50.816;6.054;2022-12-18T16:19:37;25.53;;;13.03;;
41627;SDS011;27321;50.816;6.054;2022-12-18T16:22:39;23.67;;;12.93;;
41627;SDS011;27321;50.816;6.054;2022-12-18T16:25:40;26.07;;;13.73;;
41627;SDS011;27321;50.816;6.054;2022-12-18T16:28:41;25.00;;;13.52;;
41627;SDS011;27321;50.816;6.054;2022-12-18T16:31:42;28.05;;;14.70;;
41627;SDS011;27321;50.816;6.054;2022-12-18T16:34:43;26.40;;;13.50;;
41627;SDS011;27321;50.816;6.054;2022-12-18T16:37:46;20.20;;;12.67;;
41627;SDS011;27321;50.816;6.054;2022-12-18T16:40:47;21.70;;;12.77;;
41627;SDS011;27321;50.816;6.054;2022-12-18T16:44:06;21.73;;;12.17;;
41627;SDS011;27321;50.816;6.054;2022-12-18T16:47:08;21.52;;;12.40;;
41627;SDS011;27321;50.816;6.054;2022-12-18T16:50:09;21.85;;;12.77;;
41627;SDS011;27321;50.816;6.054;2022-12-18T16:53:11;25.35;;;13.80;;
41627;SDS011;27321;50.816;6.054;2022-12-18T16:56:12;21.13;;;13.00;;
41627;SDS011;27321;50.816;6.054;2022-12-18T16:59:13;24.00;;;13.40;;
41627;SDS011;27321;50.816;6.054;2022-12-18T17:02:17;21.63;;;11.70;;
41627;SDS011;27321;50.816;6.054;2022-12-18T17:05:24;26.53;;;14.27;;
41627;SDS011;27321;50.816;6.054;2022-12-18T17:08:25;26.70;;;15.27;;
41627;SDS011;27321;50.816;6.054;2022-12-18T17:11:27;25.20;;;14.47;;
41627;SDS011;27321;50.816;6.054;2022-12-18T17:14:30;26.70;;;15.77;;
41627;SDS011;27321;50.816;6.054;2022-12-18T17:17:32;29.40;;;15.57;;
41627;SDS011;27321;50.816;6.054;2022-12-18T17:20:36;23.30;;;14.37;;
41627;SDS011;27321;50.816;6.054;2022-12-18T17:23:37;28.13;;;15.53;;
41627;SDS011;27321;50.816;6.054;2022-12-18T17:26:38;28.17;;;15.83;;
41627;SDS011;27321;50.816;6.054;2022-12-18T17:29:39;34.20;;;18.67;;
41627;SDS011;27321;50.816;6.054;2022-12-18T17:32:40;30.85;;;17.13;;
41627;SDS011;27321;50.816;6.054;2022-12-18T17:35:44;29.30;;;16.43;;
41627;SDS011;27321;50.816;6.054;2022-12-18T17:38:50;29.48;;;16.63;;
41627;SDS011;27321;50.816;6.054;2022-12-18T17:41:53;32.30;;;19.27;;
41627;SDS011;27321;50.816;6.054;2022-12-18T17:44:58;35.38;;;20.40;;
41627;SDS011;27321;50.816;6.054;2022-12-18T17:48:04;35.33;;;20.13;;
41627;SDS011;27321;50.816;6.054;2022-12-18T17:51:07;33.67;;;19.33;;
41627;SDS011;27321;50.816;6.054;2022-12-18T17:54:10;32.50;;;19.87;;
41627;SDS011;27321;50.816;6.054;2022-12-18T17:57:11;37.73;;;21.70;;
41627;SDS011;27321;50.816;6.054;2022-12-18T18:00:12;37.17;;;21.73;;
41627;SDS011;27321;50.816;6.054;2022-12-18T18:03:14;39.05;;;22.08;;
41627;SDS011;27321;50.816;6.054;2022-12-18T18:06:15;35.20;;;21.73;;
41627;SDS011;27321;50.816;6.054;2022-12-18T18:09:20;46.42;;;24.77;;
41627;SDS011;27321;50.816;6.054;2022-12-18T18:12:21;39.43;;;23.27;;
41627;SDS011;27321;50.816;6.054;2022-12-18T18:15:40;37.07;;;21.40;;
41627;SDS011;27321;50.816;6.054;2022-12-18T18:18:41;35.57;;;19.00;;
41627;SDS011;27321;50.816;6.054;2022-12-18T18:21:50;35.73;;;21.07;;
41627;SDS011;27321;50.816;6.054;2022-12-18T18:24:59;40.43;;;22.57;;
41627;SDS011;27321;50.816;6.054;2022-12-18T18:28:09;38.73;;;22.37;;
41627;SDS011;27321;50.816;6.054;2022-12-18T18:31:18;29.97;;;17.80;;
41627;SDS011;27321;50.816;6.054;2022-12-18T18:34:32;32.90;;;18.03;;
41627;SDS011;27321;50.816;6.054;2022-12-18T18:51:44;27.33;;;16.27;;
41627;SDS011;27321;50.816;6.054;2022-12-18T18:54:46;31.00;;;17.77;;
41627;SDS011;27321;50.816;6.054;2022-12-18T18:57:51;32.97;;;19.93;;
41627;SDS011;27321;50.816;6.054;2022-12-18T19:00:58;28.13;;;17.92;;
41627;SDS011;27321;50.816;6.054;2022-12-18T19:04:12;26.20;;;15.27;;
41627;SDS011;27321;50.816;6.054;2022-12-18T19:07:14;17.95;;;10.73;;
41627;SDS011;27321;50.816;6.054;2022-12-18T19:10:16;20.93;;;13.07;;
41627;SDS011;27321;50.816;6.054;2022-12-18T19:13:20;25.77;;;13.47;;
41627;SDS011;27321;50.816;6.054;2022-12-18T19:16:26;29.60;;;14.30;;
41627;SDS011;27321;50.816;6.054;2022-12-18T19:19:28;24.48;;;13.90;;
41627;SDS011;27321;50.816;6.054;2022-12-18T19:22:33;19.43;;;12.20;;
41627;SDS011;27321;50.816;6.054;2022-12-18T19:25:40;30.90;;;19.90;;
41627;SDS011;27321;50.816;6.054;2022-12-18T19:28:47;33.97;;;21.40;;
41627;SDS011;27321;50.816;6.054;2022-12-18T19:31:49;27.95;;;15.77;;
41627;SDS011;27321;50.816;6.054;2022-12-18T19:34:51;22.42;;;13.98;;
41627;SDS011;27321;50.816;6.054;2022-12-18T19:37:53;19.57;;;11.33;;
41627;SDS011;27321;50.816;6.054;2022-12-18T19:40:54;19.47;;;12.53;;
41627;SDS011;27321;50.816;6.054;2022-12-18T19:43:56;17.63;;;12.48;;
41627;SDS011;27321;50.816;6.054;2022-12-18T19:47:03;18.83;;;11.63;;
41627;SDS011;27321;50.816;6.054;2022-12-18T19:50:04;19.02;;;12.82;;
41627;SDS011;27321;50.816;6.054;2022-12-18T19:53:06;24.10;;;17.47;;
41627;SDS011;27321;50.816;6.054;2022-12-18T19:56:12;23.70;;;15.00;;
41627;SDS011;27321;50.816;6.054;2022-12-18T19:59:23;20.77;;;13.23;;
41627;SDS011;27321;50.816;6.054;2022-12-18T20:02:27;20.13;;;12.70;;
41627;SDS011;27321;50.816;6.054;2022-12-18T20:05:30;26.27;;;14.97;;
41627;SDS011;27321;50.816;6.054;2022-12-18T20:08:35;21.02;;;13.07;;
41627;SDS011;27321;50.816;6.054;2022-12-18T20:11:36;24.37;;;12.53;;
41627;SDS011;27321;50.816;6.054;2022-12-18T20:14:38;18.33;;;11.80;;
41627;SDS011;27321;50.816;6.054;2022-12-18T20:17:39;23.93;;;13.80;;
41627;SDS011;27321;50.816;6.054;2022-12-18T20:20:43;20.08;;;12.60;;
41627;SDS011;27321;50.816;6.054;2022-12-18T20:23:48;21.40;;;13.33;;